ADDS METAR Data INFO
IDs: Format: Raw Decoded Include TAF

Data at: 0942 UTC 25 Jun 2018

KCNB 250935Z AUTO 09004KT 10SM OVC006 20/19 A3000 RMK AO2 T01950190
KCNB 250915Z AUTO 00000KT 10SM BKN006 BKN017 19/19 A3002 RMK AO2 T01930188
KCNB 250855Z AUTO 00000KT 7SM SCT004 SCT008 19/18 A2997 RMK AO2 T01880183
KCNB 250835Z AUTO 06003KT 5SM BR SCT004 SCT008 BKN014 19/18 A2995 RMK AO2 T01890183
KCNB 250815Z AUTO 07003KT 7SM BKN004 BKN014 19/19 A2997 RMK AO2 T01900185
KCNB 250755Z AUTO 29004KT 7SM BKN004 BKN019 19/18 A2997 RMK AO2 T01890182
KCNB 250735Z AUTO 23003KT 5SM BR SCT004 SCT019 19/18 A2998 RMK AO2 T01900184
KCNB 250715Z AUTO 00000KT 7SM CLR 19/18 A2999 RMK AO2 T01910184
KCNB 250655Z AUTO 00000KT 10SM CLR 19/19 A2998 RMK AO2 T01930185
KCNB 250635Z AUTO 00000KT 10SM CLR 20/19 A2999 RMK AO2 T01960187
KCNB 250615Z AUTO 13003KT 10SM CLR 20/19 A2998 RMK AO2 T01950186
KCNB 250555Z AUTO 12004KT 10SM CLR 20/19 A2998 RMK AO2 T01960186 10238 20196 402810195
KCNB 250535Z AUTO 12003KT 10SM CLR 20/19 A2998 RMK AO2 T01980187
KCNB 250515Z AUTO 12004KT 10SM CLR 20/19 A2999 RMK AO2 T02000188
KCNB 250455Z AUTO 12004KT 10SM CLR 20/19 A2999 RMK AO2 T02010188
KCNB 250435Z AUTO 10004KT 10SM CLR 20/19 A2999 RMK AO2 T02020190
KCNB 250415Z AUTO 11006KT 10SM CLR 21/19 A2998 RMK AO2 LTG DSNT S T02050190
KCNB 250355Z AUTO 12008KT 10SM CLR 21/19 A2998 RMK AO2 T02090191
KCNB 250335Z AUTO 13007KT 10SM CLR 21/19 A2998 RMK AO2 T02100192
KCNB 250315Z AUTO 12007KT 10SM CLR 21/19 A2998 RMK AO2 T02110191
KCNB 250255Z AUTO 11006KT 10SM CLR 21/19 A2997 RMK AO2 T02130192
KCNB 250235Z AUTO 14005KT 10SM CLR 22/19 A2995 RMK AO2 T02160193
KCNB 250215Z AUTO 13005KT 10SM SCT090 22/19 A2995 RMK AO2 T02210193
KCNB 250155Z AUTO 12006KT 10SM BKN090 23/19 A2995 RMK AO2 T02260192
KCNB 250135Z AUTO 10012G16KT 10SM SCT090 23/20 A2995 RMK AO2 T02340195
KCNB 250115Z AUTO 10011KT 10SM CLR 24/21 A2994 RMK AO2 T02370205
KCNB 250055Z AUTO 10010KT 10SM CLR 24/21 A2994 RMK AO2 LTG DSNT S T02380208
KCNB 250035Z AUTO 12007KT 10SM SCT120 24/21 A2994 RMK AO2 LTG DSNT NE AND SE T02370210
KCNB 250015Z AUTO 10009KT 10SM OVC120 24/21 A2994 RMK AO2 LTG DSNT S T02360208
KCNB 242355Z AUTO 12012G19KT 10SM SCT023 BKN120 24/21 A2993 RMK AO2 60002 T02390205 10281 20219
KCNB 242335Z AUTO 12016G19KT 10SM SCT020 BKN095 25/21 A2992 RMK AO2 T02450211
KCNB 242315Z AUTO 11012KT 10SM SCT012 SCT018 BKN100 25/22 A2991 RMK AO2 T02460215
KCNB 242255Z AUTO 11012KT 10SM SCT110 25/23 A2990 RMK AO2 P0001 T02510225
KCNB 242235Z AUTO 12006KT 10SM OVC100 23/22 A2989 RMK AO2 P0001 T02320217
KCNB 242215Z AUTO 11004KT 10SM -RA SCT013 SCT035 BKN055 22/20 A2990 RMK AO2 LTG DSNT SE AND NW P0001 T02200204
KCNB 242155Z AUTO 15006KT 7SM -RA SCT014 SCT042 BKN050 22/20 A2990 RMK AO2 LTG DSNT ALQS P0001 T02240200
KCNB 242135Z AUTO 11015G18KT 10SM SCT019 SCT026 SCT034 25/21 A2990 RMK AO2 LTG DSNT SE THRU NW T02490211
KCNB 242115Z AUTO 12013G18KT 10SM SCT019 SCT028 BKN034 26/22 A2990 RMK AO2 LTG DSNT SE AND S T02600215
KCNB 242055Z AUTO 11014G19KT 10SM SCT024 SCT037 BKN060 27/22 A2990 RMK AO2 LTG DSNT SE T02650218
KCNB 242035Z AUTO 12014G19KT 10SM SCT024 SCT029 BKN036 27/22 A2988 RMK AO2 LTG DSNT SE THRU SW T02740222
KCNB 242015Z AUTO 13013G19KT 10SM SCT025 SCT032 28/22 A2988 RMK AO2 T02780220
KCNB 241955Z AUTO 11013KT 10SM SCT020 SCT025 BKN031 28/22 A2988 RMK AO2 T02750218
KCNB 241935Z AUTO 11010KT 10SM SCT019 SCT024 SCT029 27/22 A2989 RMK AO2 T02730220
KCNB 241915Z AUTO 11010G15KT 10SM SCT019 SCT026 BKN035 27/22 A2988 RMK AO2 T02720220
KCNB 241855Z AUTO 13009KT 10SM SCT017 SCT026 BKN031 27/22 A2988 RMK AO2 T02650219
KCNB 241835Z AUTO 12010KT 10SM SCT018 SCT031 SCT110 27/22 A2988 RMK AO2 LTG DSNT SE T02680223
KCNB 241815Z AUTO 10011KT 10SM SCT018 BKN110 26/21 A2989 RMK AO2 T02570213
KCNB 241755Z AUTO 10011G15KT 10SM SCT016 BKN110 26/21 A2988 RMK AO2 T02580214 10259 20207
KCNB 241735Z AUTO 12011KT 10SM SCT016 SCT024 BKN110 25/21 A2989 RMK AO2 T02530211
KCNB 241716Z AUTO 12010KT 10SM SCT016 SCT024 BKN034 26/21 A2989 RMK AO2 T02560210
KCNB 241655Z AUTO 11013G17KT 10SM SCT016 BKN022 BKN034 26/21 A2988 RMK AO2 T02550210
KCNB 241635Z AUTO 11011KT 10SM BKN016 BKN024 BKN033 25/21 A2988 RMK AO2 T02510209
KCNB 241615Z AUTO 11010KT 10SM SCT016 SCT020 SCT027 25/21 A2987 RMK AO2 T02500210
KCNB 241555Z AUTO 12012G15KT 10SM SCT016 SCT027 25/21 A2986 RMK AO2 T02500208
KCNB 241535Z AUTO 13010KT 10SM CLR 25/21 A2985 RMK AO2 T02460211
KCNB 241515Z AUTO 11009KT 10SM SCT007 SCT015 SCT023 24/21 A2985 RMK AO2 T02390210
KCNB 241455Z AUTO 11008KT 10SM SCT007 SCT015 BKN021 23/21 A2985 RMK AO2 T02280205
KCNB 241435Z AUTO 14009KT 10SM BKN007 BKN013 OVC019 22/21 A2986 RMK AO2 T02230206
KCNB 241415Z AUTO 13008KT 10SM BKN007 OVC013 22/20 A2986 RMK AO2 T02160202
KCNB 241355Z AUTO 13006KT 7SM BKN005 OVC009 22/20 A2986 RMK AO2 T02150203
KCNB 241335Z AUTO 12005KT 5SM BR OVC005 21/20 A2987 RMK AO2 T02140204
KCNB 241315Z AUTO 12007KT 5SM BR OVC005 21/20 A2985 RMK AO2 T02120203
KCNB 241255Z AUTO 11008KT 4SM BR OVC003 21/20 A2984 RMK AO2 T02100202
KCNB 241235Z AUTO 12006KT 2 1/2SM BR BKN003 OVC008 21/20 A2984 RMK AO2 LTG DSNT E T02100203
KCNB 241215Z AUTO 13008KT 1 1/2SM BR BKN005 BKN011 OVC027 21/20 A2983 RMK AO2 T02080200
KCNB 241155Z AUTO 13008KT 2SM BR SCT005 OVC011 21/20 A2982 RMK AO2 60001 70001 T02070200 10222 20195
KCNB 241135Z AUTO 13006KT 4SM BR OVC011 21/20 A2982 RMK AO2 T02070198
KCNB 241115Z AUTO 06005KT 5SM TS BR OVC011 21/20 A2979 RMK AO2 T02070198
KCNB 241055Z AUTO 10004KT 7SM OVC013 21/20 A2978 RMK AO2 LTG DSNT NE T02050197
KCNB 241035Z AUTO 06004KT 7SM OVC013 21/20 A2977 RMK AO2 LTG DSNT NE AND SE T02050196
KCNB 241015Z AUTO 12004KT 7SM OVC013 21/20 A2978 RMK AO2 LTG DSNT NE T02050195
KCNB 240955Z AUTO 11004KT 10SM OVC015 21/20 A2978 RMK AO2 LTG DSNT NW THRU E T02050195
KCNB 240935Z AUTO 13003KT 10SM OVC015 20/19 A2978 RMK AO2 LTG DSNT NE T02020191
KCNB 240915Z AUTO 13003KT 10SM BKN017 BKN060 BKN120 20/19 A2978 RMK AO2 T02000187
KCNB 240855Z AUTO 09006KT 10SM SCT050 SCT060 BKN120 20/19 A2977 RMK AO2 LTG DSNT NE AND SE 60001 T01990186
KCNB 240835Z AUTO 13004KT 10SM SCT050 BKN060 OVC075 20/18 A2977 RMK AO2 LTG DSNT NE T01980182
KCNB 240815Z AUTO 05005KT 10SM BKN075 BKN120 20/18 A2978 RMK AO2 LTG DSNT NE AND NW T01970181
KCNB 240755Z AUTO 03004KT 10SM SCT085 BKN120 20/19 A2977 RMK AO2 LTG DSNT N AND NE T02020186
KCNB 240735Z AUTO 14004KT 10SM SCT023 BKN090 OVC120 20/19 A2977 RMK AO2 LTG DSNT NW THRU E T02040186
KCNB 240715Z AUTO 04006KT 10SM VCTS BKN023 BKN075 OVC095 20/18 A2978 RMK AO2 LTG DSNT N AND NE T02010182
KCNB 240655Z AUTO 03005KT 10SM TS BKN027 BKN036 BKN110 21/19 A2978 RMK AO2 LTG DSNT NW THRU E P0001 T02070189
KCNB 240635Z AUTO 11003KT 10SM TS OVC029 21/19 A2978 RMK AO2 LTG DSNT ALQS P0001 T02100190
KCNB 240615Z AUTO 10010KT 10SM VCTS BKN029 BKN040 OVC049 21/19 A2978 RMK AO2 LTG DSNT NW THRU SE P0001 T02140193
KCNB 240555Z AUTO 12007KT 090V170 10SM SCT039 BKN048 OVC080 22/19 A2977 RMK AO2 LTG DSNT SE AND NW T02180194 10260 20215 402800189
KCNB 240535Z AUTO 12003KT 10SM SCT041 BKN060 BKN110 22/19 A2977 RMK AO2 LTG DSNT SE AND NW T02160191
KCNB 240515Z AUTO 10003KT 10SM SCT050 BKN100 OVC120 22/19 A2976 RMK AO2 LTG DSNT S T02210188
KCNB 240455Z AUTO 14004KT 10SM SCT075 BKN100 22/19 A2977 RMK AO2 LTG DSNT S AND NW T02200191
KCNB 240435Z AUTO 17003KT 10SM SCT100 22/19 A2977 RMK AO2 T02200192
KCNB 240415Z AUTO 12004KT 10SM CLR 22/19 A2976 RMK AO2 T02160191
KCNB 240355Z AUTO 09004KT 10SM CLR 22/19 A2975 RMK AO2 T02180190
KCNB 240335Z AUTO 09005KT 10SM CLR 22/19 A2976 RMK AO2 T02230188
KCNB 240315Z AUTO 09004KT 10SM CLR 23/19 A2976 RMK AO2 T02250192
KCNB 240255Z AUTO 09004KT 10SM SCT060 SCT075 BKN110 23/19 A2976 RMK AO2 T02280190
KCNB 240235Z AUTO 10004KT 10SM OVC110 23/19 A2975 RMK AO2 T02300192
KCNB 240215Z AUTO 12003KT 10SM OVC120 24/19 A2975 RMK AO2 T02350185
KCNB 240155Z AUTO 09005KT 10SM BKN120 24/19 A2974 RMK AO2 T02360186
KCNB 240135Z AUTO 10004KT 10SM SCT070 SCT120 24/19 A2974 RMK AO2 T02420185
KCNB 240115Z AUTO 10005KT 10SM BKN070 BKN120 25/18 A2973 RMK AO2 T02500177
KCNB 240055Z AUTO 15004KT 10SM BKN070 BKN120 25/17 A2973 RMK AO2 LTG DSNT SW T02530173
KCNB 240035Z AUTO 16006KT 10SM SCT070 SCT120 26/17 A2973 RMK AO2 T02560170
KCNB 240015Z AUTO 16006KT 100V180 10SM BKN070 BKN085 26/17 A2973 RMK AO2 T02570167
KCNB 232355Z AUTO 16005KT 10SM OVC070 26/17 A2972 RMK AO2 T02570167 10280 20256
KCNB 232335Z AUTO 16006KT 10SM OVC070 26/17 A2972 RMK AO2 T02590165
KCNB 232315Z AUTO 16009G14KT 10SM SCT048 BKN070 BKN090 26/17 A2972 RMK AO2 T02610166
KCNB 232255Z AUTO 13007KT 100V160 10SM SCT070 26/17 A2973 RMK AO2 T02640167
KCNB 232235Z AUTO 16007KT 10SM SCT065 26/17 A2973 RMK AO2 T02630166
KCNB 232215Z AUTO 17008KT 130V190 10SM SCT095 27/17 A2973 RMK AO2 T02670167
KCNB 232155Z AUTO 17009G16KT 10SM SCT045 SCT060 SCT095 27/18 A2973 RMK AO2 T02740175